Time;durP1;ratioP1;P1;durP2;ratioP2;P2;SDS_P1;SDS_P2;PMS_P1;PMS_P2;Temp;Humidity;BMP_temperature;BMP_pressure;BME280_temperature;BME280_humidity;BME280_pressure;Samples;Min_cycle;Max_cycle;Signal;HPM_P1;HPM_P2
2022/02/25 00:02:04;;;;;;;37.63;11.63;;;;;;;;;;5009277;28;20028;-62
2022/02/25 00:04:30;;;;;;;33.83;10.55;;;;;;;;;;5008832;28;20028;-62
2022/02/25 00:06:55;;;;;;;31.73;11.02;;;;;;;;;;5009686;28;20096;-61
2022/02/25 00:09:20;;;;;;;36.78;11.60;;;;;;;;;;5008951;28;20402;-61
2022/02/25 00:11:46;;;;;;;35.58;11.98;;;;;;;;;;4990586;28;20448;-62
2022/02/25 00:14:11;;;;;;;30.48;11.85;;;;;;;;;;5009132;28;20320;-61
2022/02/25 00:16:37;;;;;;;32.35;11.25;;;;;;;;;;5010256;28;20435;-61
2022/02/25 00:19:02;;;;;;;28.40;10.75;;;;;;;;;;5009209;28;20393;-62
2022/02/25 00:21:28;;;;;;;33.80;11.82;;;;;;;;;;4990836;28;20368;-61
2022/02/25 00:23:53;;;;;;;27.13;10.32;;;;;;;;;;5008736;28;20434;-61
2022/02/25 00:26:19;;;;;;;28.73;10.85;;;;;;;;;;5010221;28;20289;-62
2022/02/25 00:28:44;;;;;;;36.03;11.52;;;;;;;;;;5009526;28;20416;-61
2022/02/25 00:31:09;;;;;;;25.90;10.38;;;;;;;;;;5009145;28;20054;-62
2022/02/25 00:33:35;;;;;;;31.80;11.27;;;;;;;;;;5008859;28;20343;-61
2022/02/25 00:36:00;;;;;;;26.70;10.68;;;;;;;;;;5008701;28;21773;-61
2022/02/25 00:38:25;;;;;;;33.90;10.90;;;;;;;;;;5008146;28;20345;-62
2022/02/25 00:40:51;;;;;;;26.73;10.80;;;;;;;;;;5008973;28;20413;-62
2022/02/25 00:43:16;;;;;;;37.50;11.45;;;;;;;;;;5008583;28;20355;-62
2022/02/25 00:45:42;;;;;;;31.05;11.02;;;;;;;;;;5009980;28;20347;-62
2022/02/25 00:48:07;;;;;;;30.05;10.70;;;;;;;;;;5008673;28;20407;-61
2022/02/25 00:50:32;;;;;;;33.72;11.13;;;;;;;;;;5009048;28;20501;-61
2022/02/25 00:52:58;;;;;;;28.15;9.45;;;;;;;;;;5008323;28;20051;-62
2022/02/25 00:55:23;;;;;;;27.27;10.27;;;;;;;;;;5012732;28;20522;-62
2022/02/25 00:57:50;;;;;;;28.27;9.48;;;;;;;;;;5012367;28;20492;-63
2022/02/25 01:00:17;;;;;;;24.85;9.98;;;;;;;;;;5010677;28;20396;-62
2022/02/25 01:02:43;;;;;;;32.60;10.77;;;;;;;;;;4992616;28;20410;-65
2022/02/25 01:05:12;;;;;;;25.98;10.35;;;;;;;;;;4992960;28;20502;-62
2022/02/25 01:07:38;;;;;;;26.38;8.30;;;;;;;;;;4992692;28;20467;-62
2022/02/25 01:10:04;;;;;;;27.50;9.77;;;;;;;;;;4994489;28;20428;-61
2022/02/25 01:12:30;;;;;;;25.00;9.32;;;;;;;;;;4992519;28;20051;-62
2022/02/25 01:14:55;;;;;;;24.00;9.48;;;;;;;;;;4992454;28;20029;-61
2022/02/25 01:17:20;;;;;;;26.98;9.77;;;;;;;;;;4992544;28;20448;-61
2022/02/25 01:19:46;;;;;;;25.48;10.45;;;;;;;;;;4992608;28;20032;-63
2022/02/25 01:22:11;;;;;;;30.85;9.93;;;;;;;;;;4992480;28;20452;-61
2022/02/25 01:24:37;;;;;;;22.92;8.90;;;;;;;;;;4991873;28;20432;-61
2022/02/25 01:27:05;;;;;;;25.95;8.38;;;;;;;;;;4992722;28;20123;-61
2022/02/25 01:29:31;;;;;;;26.00;8.93;;;;;;;;;;4992152;28;20407;-62
2022/02/25 01:31:56;;;;;;;29.33;9.80;;;;;;;;;;4992550;28;20033;-62
2022/02/25 01:34:21;;;;;;;21.90;8.80;;;;;;;;;;4991838;28;20037;-62
2022/02/25 01:36:46;;;;;;;23.05;8.43;;;;;;;;;;4973789;28;20138;-61
2022/02/25 01:39:12;;;;;;;27.17;9.82;;;;;;;;;;4992670;28;20518;-62
2022/02/25 01:41:37;;;;;;;23.75;9.40;;;;;;;;;;4992761;28;20420;-61
2022/02/25 01:44:18;;;;;;;25.98;9.73;;;;;;;;;;4975405;28;20314;-61
2022/02/25 01:46:47;;;;;;;25.55;9.73;;;;;;;;;;4992179;28;20356;-61
2022/02/25 01:49:13;;;;;;;23.17;8.88;;;;;;;;;;4992750;28;20116;-62
2022/02/25 01:51:39;;;;;;;24.27;8.77;;;;;;;;;;4991793;28;20352;-62
2022/02/25 01:54:04;;;;;;;21.40;8.07;;;;;;;;;;4973962;28;20033;-63
2022/02/25 01:56:30;;;;;;;24.40;8.23;;;;;;;;;;4993234;28;20565;-61
2022/02/25 01:58:55;;;;;;;20.30;8.77;;;;;;;;;;4992175;28;20413;-62
2022/02/25 02:01:21;;;;;;;24.00;8.73;;;;;;;;;;4991352;28;20436;-61
2022/02/25 02:03:47;;;;;;;26.45;9.20;;;;;;;;;;4992120;28;20509;-62
2022/02/25 02:06:13;;;;;;;22.00;8.45;;;;;;;;;;4991725;28;20436;-61
2022/02/25 02:08:38;;;;;;;16.30;7.65;;;;;;;;;;4991632;28;20459;-62
2022/02/25 02:11:04;;;;;;;26.02;8.88;;;;;;;;;;4991803;28;20450;-62
2022/02/25 02:13:29;;;;;;;25.42;8.13;;;;;;;;;;4991747;28;20456;-62
2022/02/25 02:15:54;;;;;;;17.13;7.53;;;;;;;;;;4991773;28;20381;-62
2022/02/25 02:18:20;;;;;;;15.25;7.90;;;;;;;;;;4991903;28;20388;-61
2022/02/25 02:20:45;;;;;;;20.50;7.97;;;;;;;;;;4991437;28;20096;-61
2022/02/25 02:23:10;;;;;;;23.70;8.23;;;;;;;;;;4991426;28;20416;-62
2022/02/25 02:25:36;;;;;;;21.15;8.25;;;;;;;;;;4991752;28;20459;-61
2022/02/25 02:28:20;;;;;;;18.38;8.60;;;;;;;;;;4992323;28;20390;-63
2022/02/25 02:30:46;;;;;;;20.75;7.50;;;;;;;;;;4991357;28;20416;-61
2022/02/25 02:33:12;;;;;;;30.50;8.07;;;;;;;;;;4991856;28;20463;-62
2022/02/25 02:35:38;;;;;;;21.75;8.45;;;;;;;;;;4991468;28;20472;-61
2022/02/25 02:38:04;;;;;;;17.15;6.78;;;;;;;;;;4990518;28;20430;-62
2022/02/25 02:40:30;;;;;;;17.38;7.63;;;;;;;;;;4990974;28;20325;-63
2022/02/25 02:42:55;;;;;;;19.38;7.38;;;;;;;;;;4992700;28;20047;-62
2022/02/25 02:45:21;;;;;;;17.52;7.57;;;;;;;;;;4991157;28;20341;-62
2022/02/25 02:47:46;;;;;;;21.70;8.20;;;;;;;;;;4992540;28;20300;-61
2022/02/25 02:50:12;;;;;;;17.75;7.75;;;;;;;;;;4991686;28;20306;-61
2022/02/25 02:52:37;;;;;;;17.85;6.40;;;;;;;;;;4990582;28;20356;-61
2022/02/25 02:55:03;;;;;;;22.48;7.45;;;;;;;;;;4990623;28;20423;-62
2022/02/25 02:57:29;;;;;;;18.42;7.70;;;;;;;;;;4990834;28;20444;-62
2022/02/25 02:59:54;;;;;;;17.70;7.00;;;;;;;;;;4990734;28;20443;-61
2022/02/25 03:02:19;;;;;;;25.15;7.43;;;;;;;;;;4991913;28;20452;-62
2022/02/25 03:04:45;;;;;;;23.30;7.55;;;;;;;;;;4991499;28;20327;-61
2022/02/25 03:07:10;;;;;;;16.52;6.55;;;;;;;;;;4990776;28;20511;-62
2022/02/25 03:09:36;;;;;;;20.27;6.80;;;;;;;;;;4990540;28;20515;-62
2022/02/25 03:12:02;;;;;;;18.08;7.65;;;;;;;;;;4991363;28;20344;-62
2022/02/25 03:14:28;;;;;;;18.45;7.20;;;;;;;;;;4990848;28;20344;-61
2022/02/25 03:16:53;;;;;;;17.15;7.10;;;;;;;;;;4989548;28;20048;-61
2022/02/25 03:19:19;;;;;;;19.90;7.18;;;;;;;;;;4989779;28;20129;-62
2022/02/25 03:21:44;;;;;;;13.95;6.13;;;;;;;;;;4972529;28;20029;-62
2022/02/25 03:24:10;;;;;;;13.82;6.40;;;;;;;;;;4990102;28;20360;-61
2022/02/25 03:26:36;;;;;;;18.25;6.85;;;;;;;;;;4990448;28;20466;-62
2022/02/25 03:29:03;;;;;;;13.52;6.80;;;;;;;;;;4991095;28;20033;-62
2022/02/25 03:31:28;;;;;;;20.85;7.65;;;;;;;;;;4989747;28;20441;-61
2022/02/25 03:33:53;;;;;;;26.17;6.63;;;;;;;;;;4991106;28;20447;-62
2022/02/25 03:36:19;;;;;;;17.67;7.45;;;;;;;;;;4990909;28;20528;-61
2022/02/25 03:38:44;;;;;;;18.52;7.40;;;;;;;;;;4989787;28;20530;-61
2022/02/25 03:41:10;;;;;;;24.92;6.43;;;;;;;;;;4990705;28;20471;-61
2022/02/25 03:43:36;;;;;;;16.70;6.55;;;;;;;;;;4989779;28;20523;-62
2022/02/25 03:46:01;;;;;;;16.38;6.55;;;;;;;;;;4990120;28;20444;-62
2022/02/25 03:48:27;;;;;;;19.30;6.38;;;;;;;;;;4989920;28;20440;-61
2022/02/25 03:50:53;;;;;;;18.35;6.60;;;;;;;;;;4989465;28;20429;-62
2022/02/25 03:53:18;;;;;;;16.13;5.85;;;;;;;;;;4989616;28;20294;-61
2022/02/25 03:55:43;;;;;;;19.63;7.13;;;;;;;;;;4990228;28;20348;-62
2022/02/25 03:58:09;;;;;;;15.90;6.88;;;;;;;;;;4989202;28;20420;-61
2022/02/25 04:00:34;;;;;;;19.17;6.45;;;;;;;;;;4989813;28;20455;-62
2022/02/25 04:02:59;;;;;;;19.95;7.05;;;;;;;;;;4989506;28;20511;-62
2022/02/25 04:05:25;;;;;;;17.63;6.13;;;;;;;;;;4989137;28;20388;-62
2022/02/25 04:07:50;;;;;;;14.32;6.00;;;;;;;;;;4989960;28;20431;-62
2022/02/25 04:10:16;;;;;;;16.25;6.07;;;;;;;;;;4988853;28;20056;-61
2022/02/25 04:12:41;;;;;;;16.38;6.38;;;;;;;;;;4989526;28;20428;-61
2022/02/25 04:15:08;;;;;;;13.48;5.32;;;;;;;;;;4989269;28;20104;-61
2022/02/25 04:17:34;;;;;;;15.68;5.45;;;;;;;;;;4989681;28;20422;-61
2022/02/25 04:19:59;;;;;;;14.60;5.93;;;;;;;;;;4989437;28;20416;-62
2022/02/25 04:22:25;;;;;;;15.00;6.20;;;;;;;;;;4989449;28;20440;-62
2022/02/25 04:24:50;;;;;;;17.73;7.30;;;;;;;;;;4989284;28;20436;-62
2022/02/25 04:27:16;;;;;;;15.80;5.55;;;;;;;;;;4989442;28;20033;-61
2022/02/25 04:29:42;;;;;;;16.35;5.95;;;;;;;;;;4989180;28;20086;-62
2022/02/25 04:32:08;;;;;;;17.23;6.55;;;;;;;;;;4989138;28;20410;-62
2022/02/25 04:34:33;;;;;;;15.90;5.90;;;;;;;;;;4989081;28;20294;-63
2022/02/25 04:36:58;;;;;;;14.48;5.53;;;;;;;;;;4988033;28;20587;-61
2022/02/25 04:39:25;;;;;;;18.23;6.53;;;;;;;;;;4972251;28;20341;-62
2022/02/25 04:41:50;;;;;;;16.05;5.78;;;;;;;;;;4989479;28;20328;-62
2022/02/25 04:44:16;;;;;;;16.05;6.90;;;;;;;;;;4988867;28;20969;-63
2022/02/25 04:46:41;;;;;;;15.20;6.18;;;;;;;;;;4990254;28;20408;-61
2022/02/25 04:49:07;;;;;;;17.08;5.45;;;;;;;;;;4989469;28;20443;-62
2022/02/25 04:51:33;;;;;;;14.98;5.75;;;;;;;;;;4981111;28;20418;-62
2022/02/25 04:53:58;;;;;;;17.00;5.88;;;;;;;;;;4988904;28;20029;-62
2022/02/25 04:56:23;;;;;;;19.50;6.18;;;;;;;;;;4989137;28;20052;-62
2022/02/25 04:58:49;;;;;;;18.77;6.43;;;;;;;;;;4990509;28;20347;-62
2022/02/25 05:01:15;;;;;;;14.38;5.72;;;;;;;;;;4989890;28;20116;-61
2022/02/25 05:03:40;;;;;;;14.00;5.60;;;;;;;;;;4988865;28;20033;-62
2022/02/25 05:06:06;;;;;;;14.45;5.90;;;;;;;;;;4990284;28;20446;-62
2022/02/25 05:08:31;;;;;;;13.52;5.57;;;;;;;;;;4988392;28;20395;-62
2022/02/25 05:10:57;;;;;;;14.90;5.88;;;;;;;;;;4989065;28;20346;-62
2022/02/25 05:13:22;;;;;;;13.18;6.30;;;;;;;;;;4990346;28;20332;-61
2022/02/25 05:21:16;;;;;;;14.40;5.85;;;;;;;;;;4989173;28;20351;-62
2022/02/25 05:23:41;;;;;;;14.02;4.57;;;;;;;;;;4971219;28;20349;-61
2022/02/25 05:26:07;;;;;;;13.98;5.40;;;;;;;;;;4970638;28;20475;-61
2022/02/25 05:28:32;;;;;;;12.50;4.63;;;;;;;;;;4988676;28;20479;-61
2022/02/25 05:30:58;;;;;;;15.32;5.53;;;;;;;;;;4988881;28;20321;-62
2022/02/25 05:33:23;;;;;;;15.95;5.43;;;;;;;;;;4988740;28;20439;-62
2022/02/25 05:35:49;;;;;;;15.00;5.55;;;;;;;;;;4988502;28;20434;-61
2022/02/25 05:38:14;;;;;;;14.15;5.10;;;;;;;;;;4988438;28;20502;-62
2022/02/25 05:40:40;;;;;;;10.55;4.93;;;;;;;;;;4988942;28;20373;-61
2022/02/25 05:43:05;;;;;;;12.50;5.00;;;;;;;;;;4993161;28;20048;-61
2022/02/25 05:45:31;;;;;;;14.52;5.40;;;;;;;;;;4992054;28;20437;-63
2022/02/25 05:47:56;;;;;;;10.38;4.60;;;;;;;;;;4992426;28;20497;-61
2022/02/25 05:50:22;;;;;;;13.68;5.70;;;;;;;;;;4992226;28;20367;-62
2022/02/25 05:52:48;;;;;;;11.23;4.78;;;;;;;;;;4992107;28;20344;-62
2022/02/25 05:55:15;;;;;;;14.27;5.53;;;;;;;;;;4993464;28;20505;-62
2022/02/25 05:57:41;;;;;;;9.95;4.57;;;;;;;;;;4991863;28;20344;-61
2022/02/25 06:00:09;;;;;;;14.93;5.28;;;;;;;;;;4992011;28;20352;-62
2022/02/25 06:02:34;;;;;;;14.55;5.75;;;;;;;;;;4991668;28;20033;-61
2022/02/25 06:05:00;;;;;;;13.05;5.28;;;;;;;;;;4993405;28;20033;-61
2022/02/25 06:07:25;;;;;;;16.27;4.70;;;;;;;;;;4991456;28;20383;-62
2022/02/25 06:09:50;;;;;;;11.00;4.47;;;;;;;;;;4993676;28;20340;-62
2022/02/25 06:12:16;;;;;;;14.82;4.15;;;;;;;;;;4991329;28;20344;-62
2022/02/25 06:14:42;;;;;;;8.82;4.15;;;;;;;;;;4992712;28;20340;-61
2022/02/25 06:17:07;;;;;;;8.45;4.10;;;;;;;;;;4991692;28;20387;-62
2022/02/25 06:19:32;;;;;;;12.13;4.13;;;;;;;;;;4973212;28;20407;-62
2022/02/25 06:21:57;;;;;;;12.68;4.40;;;;;;;;;;4993445;28;20554;-61
2022/02/25 06:24:23;;;;;;;10.80;4.50;;;;;;;;;;4991583;28;20025;-62
2022/02/25 06:26:48;;;;;;;9.00;3.75;;;;;;;;;;4991017;28;20356;-62
2022/02/25 06:29:13;;;;;;;7.80;3.80;;;;;;;;;;4991398;28;20447;-62
2022/02/25 06:31:39;;;;;;;12.00;4.22;;;;;;;;;;4991462;28;20444;-62
2022/02/25 06:34:04;;;;;;;6.35;2.97;;;;;;;;;;4990983;28;20433;-64
2022/02/25 06:36:30;;;;;;;12.00;4.20;;;;;;;;;;4992523;28;20376;-62
2022/02/25 06:38:55;;;;;;;9.50;3.75;;;;;;;;;;4991074;28;20474;-61
2022/02/25 06:41:22;;;;;;;7.55;3.53;;;;;;;;;;4991647;28;20352;-62
2022/02/25 06:43:47;;;;;;;9.95;3.55;;;;;;;;;;4991094;28;20064;-62
2022/02/25 06:46:12;;;;;;;8.60;3.20;;;;;;;;;;4990721;28;20111;-62
2022/02/25 06:48:38;;;;;;;9.95;4.00;;;;;;;;;;4991078;28;20037;-61
2022/02/25 06:51:04;;;;;;;10.70;3.38;;;;;;;;;;4990703;28;20033;-61
2022/02/25 06:53:29;;;;;;;8.63;3.13;;;;;;;;;;4990853;28;20490;-62
2022/02/25 06:55:54;;;;;;;11.32;4.60;;;;;;;;;;4991188;28;20025;-62
2022/02/25 06:58:21;;;;;;;7.50;3.67;;;;;;;;;;4990208;28;20456;-62
2022/02/25 07:00:47;;;;;;;8.77;3.90;;;;;;;;;;4992142;28;20447;-62
2022/02/25 07:03:12;;;;;;;8.68;3.00;;;;;;;;;;4990529;28;20475;-61
2022/02/25 07:05:39;;;;;;;7.40;4.35;;;;;;;;;;4990482;28;20436;-62
2022/02/25 07:08:10;;;;;;;8.25;3.20;;;;;;;;;;4990704;28;20446;-62
2022/02/25 07:10:36;;;;;;;8.35;3.50;;;;;;;;;;4990646;28;20353;-63
2022/02/25 07:13:04;;;;;;;5.90;2.85;;;;;;;;;;4990547;28;20367;-61
2022/02/25 07:15:30;;;;;;;10.27;3.20;;;;;;;;;;4991679;28;20460;-62
2022/02/25 07:17:56;;;;;;;6.68;3.10;;;;;;;;;;4990977;28;20487;-61
2022/02/25 07:20:22;;;;;;;9.30;3.17;;;;;;;;;;4991140;28;20392;-61
2022/02/25 07:22:47;;;;;;;7.72;3.47;;;;;;;;;;4991076;28;20371;-61
2022/02/25 07:25:13;;;;;;;7.07;2.90;;;;;;;;;;4991192;28;20410;-61
2022/02/25 07:27:38;;;;;;;10.93;3.05;;;;;;;;;;4990067;28;20463;-61
2022/02/25 07:30:05;;;;;;;9.30;3.13;;;;;;;;;;4972414;28;20444;-61
2022/02/25 07:32:30;;;;;;;10.57;3.25;;;;;;;;;;4991202;28;20317;-62
2022/02/25 07:34:55;;;;;;;6.35;3.15;;;;;;;;;;4990033;28;20384;-62
2022/02/25 07:37:21;;;;;;;6.47;3.10;;;;;;;;;;4989275;28;20341;-61
2022/02/25 07:39:46;;;;;;;6.43;3.13;;;;;;;;;;4991013;28;20339;-62
2022/02/25 07:42:11;;;;;;;7.45;3.33;;;;;;;;;;4990252;28;20312;-62
2022/02/25 07:44:37;;;;;;;6.53;3.60;;;;;;;;;;4989917;28;20301;-61
2022/02/25 07:47:03;;;;;;;8.65;3.80;;;;;;;;;;4989861;28;20402;-63
2022/02/25 07:49:28;;;;;;;6.07;3.35;;;;;;;;;;4989721;28;20395;-61
2022/02/25 07:51:54;;;;;;;7.05;3.67;;;;;;;;;;4971749;28;20084;-61
2022/02/25 07:54:20;;;;;;;7.55;3.65;;;;;;;;;;4990164;28;20405;-61
2022/02/25 07:56:46;;;;;;;7.82;3.25;;;;;;;;;;4989619;28;20487;-62
2022/02/25 07:59:12;;;;;;;8.00;3.20;;;;;;;;;;4989126;28;20428;-61
2022/02/25 08:01:39;;;;;;;6.35;3.63;;;;;;;;;;4971454;28;20464;-62
2022/02/25 08:04:04;;;;;;;5.63;3.17;;;;;;;;;;4989608;28;20332;-61
2022/02/25 08:06:29;;;;;;;9.00;2.75;;;;;;;;;;4971367;28;20025;-62
2022/02/25 08:08:55;;;;;;;5.93;3.00;;;;;;;;;;4989333;28;20033;-61
2022/02/25 08:11:20;;;;;;;7.95;2.95;;;;;;;;;;4971247;28;20432;-61
2022/02/25 08:13:45;;;;;;;6.10;2.80;;;;;;;;;;4990601;28;20392;-60
2022/02/25 08:16:11;;;;;;;6.15;2.97;;;;;;;;;;4971497;28;20490;-61
2022/02/25 08:18:36;;;;;;;6.43;2.80;;;;;;;;;;4989165;28;20441;-62
2022/02/25 08:21:02;;;;;;;7.15;3.70;;;;;;;;;;4990217;28;20072;-61
2022/02/25 08:23:27;;;;;;;5.65;3.08;;;;;;;;;;4989441;28;20301;-61
2022/02/25 08:25:54;;;;;;;6.43;3.42;;;;;;;;;;4989321;28;20079;-61
2022/02/25 08:28:20;;;;;;;7.05;2.65;;;;;;;;;;4988763;28;20029;-60
2022/02/25 08:30:46;;;;;;;8.20;3.40;;;;;;;;;;4989167;28;20101;-61
2022/02/25 08:33:12;;;;;;;7.13;3.17;;;;;;;;;;4971268;28;20364;-62
2022/02/25 08:35:37;;;;;;;8.13;3.13;;;;;;;;;;4988957;28;20391;-60
2022/02/25 08:38:03;;;;;;;6.30;3.38;;;;;;;;;;4988588;28;20471;-61
2022/02/25 08:40:29;;;;;;;6.68;3.03;;;;;;;;;;4990520;28;20442;-62
2022/02/25 08:42:55;;;;;;;5.88;2.95;;;;;;;;;;4988676;28;20379;-61
2022/02/25 08:45:20;;;;;;;7.97;3.13;;;;;;;;;;4988923;28;20364;-60
2022/02/25 08:47:47;;;;;;;6.28;3.22;;;;;;;;;;4988714;28;20399;-60
2022/02/25 08:50:14;;;;;;;5.50;2.47;;;;;;;;;;4989454;28;20511;-61
2022/02/25 08:52:44;;;;;;;7.25;2.80;;;;;;;;;;4971505;28;20448;-60
2022/02/25 08:55:10;;;;;;;6.43;2.83;;;;;;;;;;4989902;28;20349;-61
2022/02/25 08:57:37;;;;;;;4.38;2.17;;;;;;;;;;4988833;28;20336;-61
2022/02/25 09:00:07;;;;;;;8.95;3.15;;;;;;;;;;4988457;28;20439;-60
2022/02/25 09:02:32;;;;;;;5.72;2.45;;;;;;;;;;4988271;28;20448;-61
2022/02/25 09:04:58;;;;;;;6.50;2.28;;;;;;;;;;4988768;28;20448;-61
2022/02/25 09:07:23;;;;;;;4.28;2.40;;;;;;;;;;4989432;28;20379;-60
2022/02/25 09:09:50;;;;;;;4.68;2.88;;;;;;;;;;4988839;28;20434;-60
2022/02/25 09:12:15;;;;;;;6.65;2.55;;;;;;;;;;4988495;28;20460;-61
2022/02/25 09:14:40;;;;;;;4.82;2.58;;;;;;;;;;4989996;28;20432;-61
2022/02/25 09:17:07;;;;;;;3.63;2.30;;;;;;;;;;4992511;28;20440;-60
2022/02/25 09:19:32;;;;;;;4.97;2.20;;;;;;;;;;4992409;28;20097;-62
2022/02/25 09:21:58;;;;;;;7.80;2.80;;;;;;;;;;4992773;28;20535;-61
2022/02/25 09:24:23;;;;;;;5.72;2.75;;;;;;;;;;4992414;28;20379;-61
2022/02/25 09:26:48;;;;;;;5.03;2.60;;;;;;;;;;4974454;28;20460;-61
2022/02/25 09:29:14;;;;;;;4.85;2.22;;;;;;;;;;4992442;28;20056;-61
2022/02/25 09:31:39;;;;;;;4.35;2.33;;;;;;;;;;4992164;28;20427;-60
2022/02/25 09:34:04;;;;;;;6.65;2.50;;;;;;;;;;4992503;28;20321;-61
2022/02/25 09:36:31;;;;;;;5.00;2.30;;;;;;;;;;4992825;28;20314;-61
2022/02/25 09:38:56;;;;;;;4.95;2.33;;;;;;;;;;4992077;28;20355;-61
2022/02/25 09:41:21;;;;;;;4.38;2.33;;;;;;;;;;4991841;28;20319;-61
2022/02/25 09:43:47;;;;;;;4.20;1.85;;;;;;;;;;4993619;28;20396;-61
2022/02/25 09:46:12;;;;;;;3.30;2.17;;;;;;;;;;4974325;28;20447;-63
2022/02/25 09:48:37;;;;;;;6.45;3.08;;;;;;;;;;4991514;28;20510;-61
2022/02/25 09:51:03;;;;;;;4.22;2.45;;;;;;;;;;4991782;28;20051;-61
2022/02/25 09:53:29;;;;;;;3.97;2.58;;;;;;;;;;4992904;28;20379;-61
2022/02/25 09:55:54;;;;;;;4.63;2.65;;;;;;;;;;4991573;28;20412;-61
2022/02/25 09:58:20;;;;;;;4.78;2.45;;;;;;;;;;4991253;28;20048;-60
2022/02/25 10:00:46;;;;;;;3.28;2.25;;;;;;;;;;4992000;28;20341;-60
2022/02/25 10:03:19;;;;;;;4.85;2.58;;;;;;;;;;4991810;28;20457;-61
2022/02/25 10:05:46;;;;;;;5.50;2.60;;;;;;;;;;4991997;28;20467;-61
2022/02/25 10:08:16;;;;;;;5.93;2.38;;;;;;;;;;4993840;28;20057;-60
2022/02/25 10:10:52;;;;;;;7.00;2.83;;;;;;;;;;4991134;28;20352;-63
2022/02/25 10:13:20;;;;;;;5.43;2.80;;;;;;;;;;4992491;28;20443;-61
2022/02/25 10:15:47;;;;;;;5.78;2.40;;;;;;;;;;4993312;28;20424;-61
2022/02/25 10:18:12;;;;;;;6.03;2.72;;;;;;;;;;4991492;28;20075;-61
2022/02/25 10:20:38;;;;;;;6.05;2.53;;;;;;;;;;4991696;28;20472;-61
2022/02/25 10:23:20;;;;;;;4.95;2.30;;;;;;;;;;4991472;28;20048;-60
2022/02/25 10:25:46;;;;;;;4.78;2.60;;;;;;;;;;4990702;28;20424;-62
2022/02/25 10:28:11;;;;;;;5.03;2.55;;;;;;;;;;4990970;28;20128;-61
2022/02/25 10:30:38;;;;;;;6.07;2.58;;;;;;;;;;4974372;28;20033;-61
2022/02/25 10:33:04;;;;;;;6.22;2.17;;;;;;;;;;4990817;28;20344;-61
2022/02/25 10:35:30;;;;;;;5.63;2.20;;;;;;;;;;4991460;28;20060;-63
2022/02/25 10:38:08;;;;;;;6.22;2.80;;;;;;;;;;4990448;28;20515;-62
2022/02/25 10:40:37;;;;;;;3.92;2.40;;;;;;;;;;4983012;28;20468;-61
2022/02/25 10:43:16;;;;;;;4.15;2.03;;;;;;;;;;4991056;28;20320;-61
2022/02/25 10:45:42;;;;;;;6.72;2.72;;;;;;;;;;4990911;28;20386;-62
2022/02/25 10:48:12;;;;;;;10.55;3.22;;;;;;;;;;4990937;28;20380;-61
2022/02/25 10:50:50;;;;;;;5.45;2.25;;;;;;;;;;4991451;28;20360;-61
2022/02/25 10:53:18;;;;;;;5.55;2.80;;;;;;;;;;4990851;28;20375;-60
2022/02/25 10:55:49;;;;;;;6.30;3.17;;;;;;;;;;4990663;28;20527;-61
2022/02/25 10:58:15;;;;;;;6.75;3.03;;;;;;;;;;4990890;28;20063;-61
2022/02/25 11:00:40;;;;;;;7.32;2.70;;;;;;;;;;4990407;28;20344;-61
2022/02/25 11:03:06;;;;;;;6.05;3.10;;;;;;;;;;4972812;28;20068;-61
2022/02/25 11:05:33;;;;;;;10.07;3.40;;;;;;;;;;4990881;28;20461;-61
2022/02/25 11:08:00;;;;;;;7.47;2.95;;;;;;;;;;4990775;28;20037;-61
2022/02/25 11:10:31;;;;;;;9.48;3.28;;;;;;;;;;4990363;28;20424;-61
2022/02/25 11:13:01;;;;;;;6.88;2.97;;;;;;;;;;4990490;28;20424;-61
2022/02/25 11:15:27;;;;;;;;;;;;;;;;;;4991108;28;20446;-62
2022/02/25 11:17:53;;;;;;;7.75;3.35;;;;;;;;;;4990276;28;19952;-62
2022/02/25 11:20:21;;;;;;;7.43;3.30;;;;;;;;;;4990603;28;20324;-62
2022/02/25 11:22:51;;;;;;;6.68;2.97;;;;;;;;;;4972228;28;20466;-62
2022/02/25 11:25:17;;;;;;;6.88;3.10;;;;;;;;;;4991050;28;20460;-61
2022/02/25 11:27:44;;;;;;;8.82;3.53;;;;;;;;;;4990076;28;20463;-61
2022/02/25 11:30:23;;;;;;;5.35;3.10;;;;;;;;;;4990446;28;20159;-62
2022/02/25 11:33:00;;;;;;;6.18;2.88;;;;;;;;;;4972759;28;20363;-61
2022/02/25 11:35:47;;;;;;;5.65;2.88;;;;;;;;;;4972313;28;20444;-61
2022/02/25 11:38:13;;;;;;;7.15;2.92;;;;;;;;;;4988401;28;20419;-61
2022/02/25 11:40:55;;;;;;;5.57;2.45;;;;;;;;;;4990219;28;20360;-62
2022/02/25 11:43:37;;;;;;;7.53;2.80;;;;;;;;;;4990721;28;20503;-62
2022/02/25 11:46:03;;;;;;;5.95;2.42;;;;;;;;;;4990142;28;20654;-61
2022/02/25 11:48:43;;;;;;;8.60;2.38;;;;;;;;;;4990001;28;20439;-62
2022/02/25 11:51:43;;;;;;;8.85;2.38;;;;;;;;;;4990277;28;20412;-61
2022/02/25 11:54:24;;;;;;;7.80;2.72;;;;;;;;;;4989915;28;20332;-61
2022/02/25 11:57:04;;;;;;;3.78;2.17;;;;;;;;;;4989725;28;20459;-63
2022/02/25 11:59:32;;;;;;;6.18;2.10;;;;;;;;;;4989323;28;20375;-62
2022/02/25 12:02:12;;;;;;;4.50;1.83;;;;;;;;;;4989566;28;20452;-62
2022/02/25 12:04:43;;;;;;;3.65;2.33;;;;;;;;;;4989487;28;20421;-61
2022/02/25 12:07:30;;;;;;;4.95;2.20;;;;;;;;;;4989593;28;20348;-62
2022/02/25 12:10:00;;;;;;;5.53;2.10;;;;;;;;;;4989349;28;20460;-63
2022/02/25 12:12:26;;;;;;;5.85;2.17;;;;;;;;;;4989167;28;20518;-62
2022/02/25 12:15:04;;;;;;;4.28;2.33;;;;;;;;;;4990133;28;20458;-61
2022/02/25 12:17:56;;;;;;;6.88;2.45;;;;;;;;;;4989099;28;20389;-62
2022/02/25 12:20:27;;;;;;;4.95;1.75;;;;;;;;;;4971721;28;20447;-61
2022/02/25 12:23:04;;;;;;;4.38;2.17;;;;;;;;;;4989134;28;20570;-61
2022/02/25 12:25:38;;;;;;;9.65;2.67;;;;;;;;;;4990750;28;20598;-63
2022/02/25 12:28:10;;;;;;;4.05;1.48;;;;;;;;;;4989317;28;20055;-62
2022/02/25 12:30:38;;;;;;;2.72;1.48;;;;;;;;;;4989850;28;20429;-62
2022/02/25 12:33:31;;;;;;;5.70;2.17;;;;;;;;;;4989542;28;20443;-62
2022/02/25 12:35:58;;;;;;;4.30;1.60;;;;;;;;;;4988961;28;20424;-62
2022/02/25 12:38:28;;;;;;;4.57;2.05;;;;;;;;;;4988767;28;20421;-62
2022/02/25 12:40:54;;;;;;;5.10;1.85;;;;;;;;;;4990254;28;20363;-62
2022/02/25 12:43:20;;;;;;;5.80;2.50;;;;;;;;;;4988515;28;20368;-62
2022/02/25 12:45:46;;;;;;;4.28;2.15;;;;;;;;;;4989070;28;20439;-62
2022/02/25 12:48:12;;;;;;;5.63;1.70;;;;;;;;;;4989207;28;20446;-62
2022/02/25 12:50:44;;;;;;;5.60;1.92;;;;;;;;;;4988431;28;20021;-62
2022/02/25 12:53:10;;;;;;;5.80;1.98;;;;;;;;;;4989123;28;20448;-62
2022/02/25 12:55:35;;;;;;;4.25;1.73;;;;;;;;;;4988616;28;20408;-62
2022/02/25 12:58:01;;;;;;;4.10;1.77;;;;;;;;;;4988862;28;20445;-61
2022/02/25 13:00:26;;;;;;;3.05;1.63;;;;;;;;;;4988746;28;20340;-62
2022/02/25 13:02:55;;;;;;;5.18;2.25;;;;;;;;;;4971203;28;20514;-62
2022/02/25 13:05:21;;;;;;;4.63;1.60;;;;;;;;;;4988936;28;20025;-62
2022/02/25 13:07:57;;;;;;;5.75;2.17;;;;;;;;;;4989531;28;20448;-62
2022/02/25 13:10:29;;;;;;;3.38;1.52;;;;;;;;;;4988951;28;20528;-63
2022/02/25 13:12:55;;;;;;;3.63;1.77;;;;;;;;;;4990133;28;20080;-62
2022/02/25 13:15:26;;;;;;;4.68;1.95;;;;;;;;;;4989937;28;20108;-62
2022/02/25 13:17:52;;;;;;;2.38;1.27;;;;;;;;;;4988704;28;20336;-62
2022/02/25 13:20:20;;;;;;;3.42;1.50;;;;;;;;;;4990581;28;20021;-62
2022/02/25 13:22:47;;;;;;;3.33;1.53;;;;;;;;;;4989502;28;20091;-62
2022/02/25 13:25:24;;;;;;;3.30;1.83;;;;;;;;;;4988747;28;20424;-61
2022/02/25 13:27:55;;;;;;;4.30;1.83;;;;;;;;;;4988208;28;20468;-63
2022/02/25 13:30:38;;;;;;;3.25;1.50;;;;;;;;;;4988631;28;20356;-62
2022/02/25 13:33:08;;;;;;;4.90;1.70;;;;;;;;;;4989191;28;20509;-62
2022/02/25 13:35:46;;;;;;;4.38;1.90;;;;;;;;;;4988121;28;20380;-62
2022/02/25 13:38:32;;;;;;;4.80;1.80;;;;;;;;;;4987825;28;20334;-62
2022/02/25 13:41:00;;;;;;;2.95;1.63;;;;;;;;;;4988200;28;20095;-62
2022/02/25 13:43:32;;;;;;;4.07;1.80;;;;;;;;;;4976347;28;20434;-62
2022/02/25 13:46:21;;;;;;;2.28;1.40;;;;;;;;;;4987989;28;20436;-62
2022/02/25 13:54:36;;;;;;;2.55;1.30;;;;;;;;;;4989383;28;20509;-62
2022/02/25 13:57:03;;;;;;;3.25;1.40;;;;;;;;;;4989240;28;20342;-63
2022/02/25 13:59:39;;;;;;;3.85;1.77;;;;;;;;;;4988605;28;20041;-61
2022/02/25 14:02:10;;;;;;;2.78;1.45;;;;;;;;;;4989944;28;20344;-62
2022/02/25 14:04:37;;;;;;;2.15;1.45;;;;;;;;;;4991592;28;20422;-63
2022/02/25 14:07:04;;;;;;;3.83;1.45;;;;;;;;;;4974358;28;20064;-62
2022/02/25 14:09:32;;;;;;;3.75;1.73;;;;;;;;;;4992160;28;20032;-62
2022/02/25 14:12:05;;;;;;;3.20;1.52;;;;;;;;;;4992045;28;20108;-62
2022/02/25 14:14:36;;;;;;;2.65;1.48;;;;;;;;;;4991215;28;20490;-63
2022/02/25 14:17:03;;;;;;;2.65;1.23;;;;;;;;;;4991840;28;20447;-62
2022/02/25 14:19:28;;;;;;;5.85;2.08;;;;;;;;;;4991683;28;20430;-62
2022/02/25 14:21:54;;;;;;;6.68;1.77;;;;;;;;;;4992642;28;20100;-62
2022/02/25 14:24:21;;;;;;;5.15;1.85;;;;;;;;;;4991585;28;20432;-62
2022/02/25 14:26:46;;;;;;;4.38;1.80;;;;;;;;;;4991468;28;20482;-62
2022/02/25 14:29:19;;;;;;;4.13;2.28;;;;;;;;;;4991557;28;20435;-62
2022/02/25 14:31:44;;;;;;;4.82;1.70;;;;;;;;;;4992586;28;20412;-62
2022/02/25 14:34:09;;;;;;;4.75;2.10;;;;;;;;;;4991645;28;20333;-62
2022/02/25 14:36:36;;;;;;;4.55;2.33;;;;;;;;;;4956863;28;20428;-63
2022/02/25 14:39:05;;;;;;;6.85;2.53;;;;;;;;;;4990603;28;20474;-62
2022/02/25 14:41:31;;;;;;;5.30;2.15;;;;;;;;;;4991510;28;20451;-62
2022/02/25 14:43:56;;;;;;;5.63;2.65;;;;;;;;;;4991160;28;20408;-62
2022/02/25 14:46:23;;;;;;;8.20;2.83;;;;;;;;;;4991422;28;20411;-62
2022/02/25 14:48:48;;;;;;;7.60;2.30;;;;;;;;;;4991735;28;20329;-62